Airfield :
LOGIN :

Register | Disclaimer

   EN    FR    IT 

 










Legend :    VFR   Marginal VFR   IFR   Intensive IFR   Very Intensive IFR
Visi :
Ceiling :
>= 8 km
>= 3000ft
5 to 8 km
1000 to 3000 ft
1500m to 5 km
500 to 1000 ft
800 to 1500m
200 to 500 ft
< 800m
< 200 ft
Symbols :   Thunderstorms  Fog  Heavy snow  Heavy precipitations  Wind > 20 kt
SIGMETs :     Misc.  Thunderstorms  Icing  Turbulence  Mountain Waves  Volcanic Ashes







- Airport Elevation : 1460 ft


LSMA - Alpnach

CURRENT METAR :
  • 260750Z 20004KT 170V230 8000 -RA FEW034 OVC041 07/05 Q1016 RERA RMK BLU

EXPIRED METARs :
  • 260720Z 19006KT 160V240 8000 RA OVC035 07/05 Q1016 RMK BLU
  • 260650Z 18007KT 150V210 5000 -RA BKN033 OVC042 07/05 Q1016 RERA RMK WHT
  • 260620Z 22003KT 160V330 5000 RA FEW010 OVC035 07/06 Q1016 RMK WHT
  • 260550Z VRB02KT 8000 RA BKN034 OVC044 07/06 Q1015 RMK BLU
  • 260520Z VRB01KT 6000 RA FEW005 SCT029 OVC039 08/07 Q1015 RMK WHT

Expired Forecast.
No reported NOTAMs for that airfield.
1 SIGMET reported for the Switzerland FIR (LSAS) :
 
Embedded thunderstorms
LSAS SIGMET 4 VALID 260700/260900 LSZH
LSAS SWITZERLAND FIR/UIR EMBD TS OBS WI N4641 E00836 - N4635 E00933 - N4545 E00902 - N4618 E00815 - N4641 E00836 TOP FL240 STNR NC=



MET'MAP, your aeronautical weather chart ! - Copyright ORBIFLY December 2007 - Disclaimer

ORBIFLY MET'MAP TEAM :

Programming & Development : Alexandra Zaïnal
Concept & Development : Baudouin d'Aumeries
Co-Development & Prog : Marc-Olivier Méhu
Technical & hardware support : Manuel Goepfert

Contact : metmap@orbifly.com




SOURCES & CREDITS :

   NOAA